createdAt,value
2022-08-04T00:00:17.070Z,3.60
2022-08-04T00:02:58.977Z,3.67
2022-08-04T00:05:35.267Z,3.10
2022-08-04T00:08:12.837Z,3.73
2022-08-04T00:10:41.021Z,3.33
2022-08-04T00:13:10.424Z,3.70
2022-08-04T00:15:39.064Z,3.13
2022-08-04T00:18:10.845Z,3.50
2022-08-04T00:20:42.347Z,3.10
2022-08-04T00:23:10.266Z,3.07
2022-08-04T00:25:41.218Z,3.40
2022-08-04T00:28:09.853Z,3.53
2022-08-04T00:30:37.579Z,3.40
2022-08-04T00:33:05.614Z,3.60
2022-08-04T00:35:35.060Z,3.53
2022-08-04T00:38:03.625Z,4.10
2022-08-04T00:40:37.016Z,4.00
2022-08-04T00:43:16.037Z,3.60
2022-08-04T00:46:18.079Z,3.57
2022-08-04T00:49:03.137Z,4.40
2022-08-04T00:51:45.071Z,3.80
2022-08-04T00:54:18.838Z,4.10
2022-08-04T00:57:30.129Z,3.43
2022-08-04T01:00:09.444Z,3.43
2022-08-04T01:02:40.488Z,3.90
2022-08-04T01:05:21.369Z,3.70
2022-08-04T01:08:11.667Z,3.83
2022-08-04T01:10:52.766Z,3.50
2022-08-04T01:13:39.122Z,3.70
2022-08-04T01:16:08.381Z,3.90
2022-08-04T01:18:46.919Z,4.20
2022-08-04T01:21:46.070Z,3.90
2022-08-04T01:24:29.513Z,3.70
2022-08-04T01:27:03.776Z,3.53
2022-08-04T01:29:47.002Z,4.00
2022-08-04T01:32:26.171Z,3.60
2022-08-04T01:35:07.470Z,3.70
2022-08-04T01:37:50.088Z,3.30
2022-08-04T01:40:18.147Z,3.20
2022-08-04T01:42:46.404Z,3.53
2022-08-04T01:45:16.307Z,3.43
2022-08-04T01:47:50.300Z,2.80
2022-08-04T01:50:18.102Z,3.30
2022-08-04T01:52:51.004Z,3.57
2022-08-04T01:55:19.901Z,3.40
2022-08-04T01:57:49.586Z,2.80
2022-08-04T02:00:21.257Z,2.80
2022-08-04T02:02:50.965Z,3.00
2022-08-04T02:05:21.026Z,2.67
2022-08-04T02:08:05.314Z,3.33
2022-08-04T02:10:45.434Z,3.23
2022-08-04T02:13:28.211Z,3.27
2022-08-04T02:16:04.351Z,3.20
2022-08-04T02:18:35.331Z,3.03
2022-08-04T02:21:03.892Z,3.00
2022-08-04T02:23:37.094Z,2.77
2022-08-04T02:26:07.036Z,3.43
2022-08-04T02:28:49.250Z,3.07
2022-08-04T02:31:30.732Z,3.40
2022-08-04T02:34:06.682Z,3.30
2022-08-04T02:36:37.655Z,3.33
2022-08-04T02:39:07.799Z,3.00
2022-08-04T02:41:36.291Z,2.93
2022-08-04T02:44:05.762Z,2.87
2022-08-04T02:46:36.289Z,3.93
2022-08-04T02:49:06.105Z,3.00
2022-08-04T02:51:36.175Z,3.23
2022-08-04T02:54:06.187Z,2.70
2022-08-04T02:56:37.316Z,3.00
2022-08-04T02:59:08.061Z,2.90
2022-08-04T03:01:38.190Z,3.20
2022-08-04T03:04:40.916Z,3.03
2022-08-04T03:07:47.824Z,2.83
2022-08-04T03:10:47.329Z,3.30
2022-08-04T03:13:36.804Z,2.90
2022-08-04T03:16:22.566Z,3.10
2022-08-04T03:19:24.563Z,3.27
2022-08-04T03:22:28.721Z,3.30
2022-08-04T03:25:25.031Z,3.00
2022-08-04T03:28:26.219Z,3.00
2022-08-04T03:31:14.189Z,3.13
2022-08-04T03:33:52.091Z,3.40
2022-08-04T03:37:02.889Z,2.90
2022-08-04T03:39:48.261Z,3.60
2022-08-04T03:42:35.289Z,3.20
2022-08-04T03:45:40.606Z,3.07
2022-08-04T03:48:35.199Z,2.73
2022-08-04T03:51:46.068Z,2.80
2022-08-04T03:54:57.679Z,3.00
2022-08-04T03:57:48.518Z,3.07
2022-08-04T04:00:19.465Z,3.27
2022-08-04T04:03:31.464Z,3.20
2022-08-04T04:06:20.884Z,3.07
2022-08-04T04:09:03.686Z,3.83
2022-08-04T04:12:00.342Z,3.00
2022-08-04T04:14:44.744Z,3.70
2022-08-04T04:17:34.069Z,3.60
2022-08-04T04:20:25.583Z,4.30
2022-08-04T04:23:01.816Z,4.00
2022-08-04T04:25:40.897Z,3.60
2022-08-04T04:28:45.938Z,3.80
2022-08-04T04:31:47.672Z,3.27
2022-08-04T04:34:36.399Z,3.10
2022-08-04T04:37:20.701Z,2.93
2022-08-04T04:40:03.616Z,3.07
2022-08-04T04:42:56.607Z,3.47
2022-08-04T04:45:31.988Z,3.30
2022-08-04T04:48:10.982Z,3.80
2022-08-04T04:50:56.966Z,3.37
2022-08-04T04:53:29.545Z,2.80
2022-08-04T04:56:04.508Z,3.37
2022-08-04T04:58:35.110Z,3.17
2022-08-04T05:01:41.790Z,3.53
2022-08-04T05:04:33.866Z,4.30
2022-08-04T05:07:22.888Z,4.37
2022-08-04T05:10:07.761Z,4.27
2022-08-04T05:14:38.056Z,5.07
2022-08-04T05:15:44.373Z,4.90
2022-08-04T05:18:20.166Z,4.03
2022-08-04T05:20:54.315Z,3.70
2022-08-04T05:23:26.120Z,3.63
2022-08-04T05:25:59.521Z,3.53
2022-08-04T05:28:30.302Z,3.30
2022-08-04T05:31:02.285Z,3.70
2022-08-04T05:33:35.628Z,3.60
2022-08-04T05:36:23.529Z,3.90
2022-08-04T05:38:59.758Z,3.70
2022-08-04T05:41:32.241Z,3.80
2022-08-04T05:44:13.107Z,3.00
2022-08-04T05:46:41.969Z,2.97
2022-08-04T05:49:12.730Z,3.50
2022-08-04T05:51:48.759Z,2.70
2022-08-04T05:54:18.732Z,2.53
2022-08-04T05:56:47.116Z,2.40
2022-08-04T05:59:16.390Z,2.70
2022-08-04T06:01:55.567Z,2.37
2022-08-04T06:04:30.627Z,2.73
2022-08-04T06:06:58.319Z,2.57
2022-08-04T06:09:26.096Z,2.30
2022-08-04T06:12:03.609Z,2.40
2022-08-04T06:14:39.189Z,2.70
2022-08-04T06:17:27.152Z,2.30
2022-08-04T06:20:20.028Z,2.93
2022-08-04T06:22:50.363Z,2.37
2022-08-04T06:25:23.354Z,2.43
2022-08-04T06:27:52.403Z,2.57
2022-08-04T06:30:20.896Z,2.50
2022-08-04T06:33:03.778Z,2.10
2022-08-04T06:35:34.622Z,2.90
2022-08-04T06:38:04.209Z,3.08
2022-08-04T06:40:34.549Z,2.83
2022-08-04T06:43:03.807Z,2.60
2022-08-04T06:45:34.246Z,2.85
2022-08-04T06:48:03.451Z,3.20
2022-08-04T06:51:24.918Z,3.10
2022-08-04T06:53:21.240Z,2.40
2022-08-04T06:55:50.244Z,2.80
2022-08-04T06:58:20.031Z,2.47
2022-08-04T07:00:49.337Z,3.05
2022-08-04T07:03:18.971Z,3.05
2022-08-04T07:05:49.678Z,2.42
2022-08-04T07:08:17.867Z,3.10
2022-08-04T07:10:46.600Z,2.75
2022-08-04T07:13:14.944Z,2.80
2022-08-04T07:15:44.807Z,2.65
2022-08-04T07:18:12.451Z,2.70
2022-08-04T07:20:42.919Z,3.33
2022-08-04T07:23:17.185Z,3.75
2022-08-04T07:26:00.108Z,3.17
2022-08-04T07:28:33.221Z,3.05
2022-08-04T07:31:03.254Z,3.53
2022-08-04T07:33:31.588Z,3.65
2022-08-04T07:36:09.509Z,3.53
2022-08-04T07:38:48.600Z,3.22
2022-08-04T07:41:38.711Z,3.00
2022-08-04T07:44:07.781Z,2.80
2022-08-04T07:46:36.050Z,2.90
2022-08-04T07:49:04.183Z,2.78
2022-08-04T07:51:33.085Z,3.03
2022-08-04T07:54:03.872Z,2.42
2022-08-04T07:56:32.354Z,3.13
2022-08-04T07:59:03.274Z,2.50
2022-08-04T08:01:31.473Z,2.65
2022-08-04T08:04:01.268Z,3.00
2022-08-04T08:06:32.908Z,3.10
2022-08-04T08:09:13.446Z,3.05
2022-08-04T08:12:37.906Z,3.30
2022-08-04T08:14:31.422Z,3.03
2022-08-04T08:17:00.006Z,2.55
2022-08-04T08:19:27.627Z,3.10
2022-08-04T08:22:00.090Z,2.67
2022-08-04T08:24:30.587Z,3.08
2022-08-04T08:26:58.618Z,2.83
2022-08-04T08:29:27.541Z,2.78
2022-08-04T08:32:00.477Z,2.42
2022-08-04T08:34:31.960Z,2.30
2022-08-04T08:37:05.372Z,2.20
2022-08-04T08:39:40.959Z,2.20
2022-08-04T08:42:39.491Z,2.33
2022-08-04T08:45:38.485Z,2.03
2022-08-04T08:48:17.936Z,2.10
2022-08-04T08:51:11.522Z,2.30
2022-08-04T08:54:29.864Z,2.50
2022-08-04T08:57:20.425Z,2.10
2022-08-04T09:00:08.424Z,2.38
2022-08-04T09:03:07.260Z,3.03
2022-08-04T09:05:56.099Z,2.70
2022-08-04T09:08:47.363Z,2.58
2022-08-04T09:11:17.820Z,2.90
2022-08-04T09:13:54.189Z,2.58
2022-08-04T09:16:26.334Z,2.92
2022-08-04T09:18:58.637Z,2.90
2022-08-04T09:21:32.758Z,3.13
2022-08-04T09:24:36.858Z,2.77
2022-08-04T09:26:59.718Z,2.87
2022-08-04T09:29:37.563Z,2.80
2022-08-04T09:32:11.682Z,3.20
2022-08-04T09:35:03.488Z,3.10
2022-08-04T09:37:45.596Z,3.47
2022-08-04T09:40:31.942Z,2.60
2022-08-04T09:43:19.884Z,3.30
2022-08-04T09:46:03.375Z,2.47
2022-08-04T09:48:37.765Z,2.30
2022-08-04T09:51:15.920Z,3.53
2022-08-04T09:53:56.347Z,2.80
2022-08-04T09:56:31.631Z,3.07
2022-08-04T09:59:12.261Z,2.90
2022-08-04T10:01:44.811Z,2.70
2022-08-04T10:04:17.672Z,3.00
2022-08-04T10:07:05.493Z,2.90
2022-08-04T10:09:48.088Z,3.10
2022-08-04T10:12:30.564Z,2.90
2022-08-04T10:15:07.651Z,2.80
2022-08-04T10:18:05.685Z,3.10
2022-08-04T10:21:04.761Z,3.20
2022-08-04T10:23:56.405Z,2.80
2022-08-04T10:26:37.835Z,3.07
2022-08-04T10:29:12.017Z,2.70
2022-08-04T10:31:45.885Z,2.80
2022-08-04T10:34:20.217Z,2.73
2022-08-04T10:36:57.681Z,2.80
2022-08-04T10:39:43.725Z,2.80
2022-08-04T10:42:22.628Z,2.60
2022-08-04T10:45:02.394Z,3.10
2022-08-04T10:47:43.088Z,2.40
2022-08-04T10:50:14.236Z,2.53
2022-08-04T10:52:47.225Z,2.37
2022-08-04T10:55:19.692Z,2.77
2022-08-04T10:57:52.679Z,2.50
2022-08-04T11:00:23.959Z,2.00
2022-08-04T11:02:57.014Z,2.60
2022-08-04T11:05:32.701Z,2.50
2022-08-04T11:08:11.497Z,2.40
2022-08-04T11:10:47.578Z,2.50
2022-08-04T11:13:29.355Z,2.43
2022-08-04T11:16:03.500Z,2.00
2022-08-04T11:18:41.148Z,2.13
2022-08-04T11:21:17.143Z,2.27
2022-08-04T11:23:48.874Z,2.10
2022-08-04T11:26:22.891Z,2.40
2022-08-04T11:29:03.688Z,2.37
2022-08-04T11:31:36.359Z,2.30
2022-08-04T11:34:06.938Z,2.30
2022-08-04T11:36:42.658Z,2.22
2022-08-04T11:39:16.565Z,2.50
2022-08-04T11:41:52.398Z,2.40
2022-08-04T11:44:26.724Z,1.90
2022-08-04T11:46:57.847Z,1.55
2022-08-04T11:49:32.513Z,1.80
2022-08-04T11:52:23.714Z,2.20
2022-08-04T11:54:54.823Z,1.90
2022-08-04T11:57:35.105Z,1.98
2022-08-04T12:00:08.803Z,1.90
2022-08-04T12:02:59.694Z,2.05
2022-08-04T12:05:37.088Z,1.77
2022-08-04T12:08:22.252Z,2.05
2022-08-04T12:11:01.423Z,1.95
2022-08-04T12:13:36.163Z,1.80
2022-08-04T12:16:11.855Z,1.90
2022-08-04T12:18:43.828Z,2.20
2022-08-04T12:21:15.864Z,2.43
2022-08-04T12:23:47.246Z,1.37
2022-08-04T12:26:18.590Z,1.85
2022-08-04T12:31:45.374Z,1.70
2022-08-04T12:34:17.501Z,1.63
2022-08-04T12:36:55.523Z,1.87
2022-08-04T12:39:28.005Z,1.63
2022-08-04T12:42:07.854Z,1.67
2022-08-04T12:44:39.158Z,1.83
2022-08-04T12:47:26.544Z,1.58
2022-08-04T12:50:00.708Z,1.70
2022-08-04T12:53:00.864Z,1.63
2022-08-04T12:55:22.305Z,1.90
2022-08-04T12:57:52.061Z,1.37
2022-08-04T13:00:31.196Z,1.50
2022-08-04T13:03:10.163Z,1.50
2022-08-04T13:05:40.708Z,1.30
2022-08-04T13:08:11.073Z,1.50
2022-08-04T13:10:42.314Z,1.55
2022-08-04T13:13:15.983Z,1.60
2022-08-04T13:15:47.568Z,1.65
2022-08-04T13:18:29.538Z,1.63
2022-08-04T13:21:20.608Z,2.13
2022-08-04T13:24:19.164Z,2.30
2022-08-04T13:26:54.638Z,2.10
2022-08-04T13:29:58.746Z,1.98
2022-08-04T13:32:17.654Z,1.90
2022-08-04T13:34:49.583Z,1.90
2022-08-04T13:37:23.465Z,1.80
2022-08-04T13:39:55.915Z,1.60
2022-08-04T13:42:26.822Z,1.77
2022-08-04T13:44:57.091Z,2.00
2022-08-04T13:47:30.044Z,1.90
2022-08-04T13:50:11.603Z,1.95
2022-08-04T13:52:40.844Z,1.90
2022-08-04T13:55:09.355Z,1.50
2022-08-04T13:57:46.447Z,1.60
2022-08-04T14:00:16.912Z,1.52
2022-08-04T14:03:01.763Z,1.70
2022-08-04T14:05:58.724Z,1.50
2022-08-04T14:08:23.562Z,1.80
2022-08-04T14:11:00.130Z,1.92
2022-08-04T14:13:41.800Z,1.40
2022-08-04T14:16:20.252Z,1.67
2022-08-04T14:18:49.263Z,1.80
2022-08-04T14:21:18.798Z,1.92
2022-08-04T14:23:49.850Z,1.42
2022-08-04T14:26:20.835Z,1.70
2022-08-04T14:29:27.252Z,1.60
2022-08-04T14:32:06.036Z,1.60
2022-08-04T14:34:41.245Z,1.98
2022-08-04T14:37:17.633Z,1.60
2022-08-04T14:40:19.039Z,1.42
2022-08-04T14:42:43.454Z,1.77
2022-08-04T14:45:13.103Z,1.50
2022-08-04T14:47:52.534Z,1.60
2022-08-04T14:50:22.197Z,1.73
2022-08-04T14:52:49.845Z,1.70
2022-08-04T14:55:19.301Z,1.50
2022-08-04T14:58:35.008Z,1.55
2022-08-04T15:00:37.922Z,1.58
2022-08-04T15:03:08.499Z,1.60
2022-08-04T15:06:02.198Z,1.73
2022-08-04T15:08:31.116Z,1.67
2022-08-04T15:11:02.728Z,1.88
2022-08-04T15:13:31.107Z,1.80
2022-08-04T15:16:04.090Z,1.65
2022-08-04T15:18:37.176Z,1.65
2022-08-04T15:21:05.412Z,1.98
2022-08-04T15:23:39.642Z,1.70
2022-08-04T15:26:12.691Z,1.90
2022-08-04T15:28:43.336Z,2.00
2022-08-04T15:32:03.909Z,1.80
2022-08-04T15:34:00.990Z,1.88
2022-08-04T15:36:36.756Z,1.83
2022-08-04T15:39:12.260Z,1.98
2022-08-04T15:41:55.035Z,1.88
2022-08-04T15:44:54.800Z,1.92
2022-08-04T15:47:28.331Z,1.88
2022-08-04T15:50:08.909Z,2.28
2022-08-04T15:53:10.517Z,1.83
2022-08-04T15:55:42.896Z,2.10
2022-08-04T15:58:12.588Z,1.83
2022-08-04T16:01:19.408Z,1.83
2022-08-04T16:03:57.989Z,2.10
2022-08-04T16:06:45.145Z,2.13
2022-08-04T16:09:45.501Z,2.08
2022-08-04T16:12:55.036Z,1.88
2022-08-04T16:15:39.169Z,1.92
2022-08-04T16:18:13.781Z,1.80
2022-08-04T16:20:57.220Z,2.10
2022-08-04T16:23:55.967Z,1.90
2022-08-04T16:26:54.640Z,1.80
2022-08-04T16:29:28.397Z,2.15
2022-08-04T16:32:13.159Z,2.08
2022-08-04T16:34:49.187Z,2.13
2022-08-04T16:37:25.154Z,1.95
2022-08-04T16:40:31.785Z,1.80
2022-08-04T16:43:08.825Z,1.67
2022-08-04T16:45:51.751Z,1.50
2022-08-04T16:48:20.527Z,1.75
2022-08-04T16:50:56.086Z,1.70
2022-08-04T16:54:04.285Z,1.83
2022-08-04T16:56:18.696Z,1.75
2022-08-04T16:58:50.688Z,1.80
2022-08-04T17:01:33.391Z,1.70
2022-08-04T17:04:06.052Z,1.80
2022-08-04T17:06:36.889Z,2.55
2022-08-04T17:09:12.132Z,1.52
2022-08-04T17:11:40.356Z,1.57
2022-08-04T17:14:08.102Z,1.87
2022-08-04T17:16:39.447Z,1.73
2022-08-04T17:19:19.773Z,2.17
2022-08-04T17:21:53.432Z,2.20
2022-08-04T17:24:22.337Z,2.20
2022-08-04T17:26:54.322Z,2.23
2022-08-04T17:29:43.015Z,1.87
2022-08-04T17:32:15.815Z,2.30
2022-08-04T17:34:48.786Z,1.80
2022-08-04T17:37:38.308Z,1.93
2022-08-04T17:40:13.326Z,1.60
2022-08-04T17:42:42.356Z,2.13
2022-08-04T17:48:02.968Z,2.00
2022-08-04T17:50:34.762Z,3.20
2022-08-04T17:53:12.121Z,2.50
2022-08-04T17:55:44.304Z,2.50
2022-08-04T17:58:20.844Z,2.30
2022-08-04T18:00:51.178Z,1.90
2022-08-04T18:03:24.607Z,1.77
2022-08-04T18:06:03.541Z,1.90
2022-08-04T18:08:39.724Z,1.80
2022-08-04T18:11:22.143Z,2.00
2022-08-04T18:13:57.260Z,2.43
2022-08-04T18:16:27.391Z,2.23
2022-08-04T18:19:10.851Z,2.37
2022-08-04T18:21:46.853Z,2.37
2022-08-04T18:24:34.108Z,2.67
2022-08-04T18:27:06.339Z,2.00
2022-08-04T18:29:39.305Z,2.17
2022-08-04T18:32:09.128Z,2.30
2022-08-04T18:34:40.730Z,2.23
2022-08-04T18:38:03.156Z,2.13
2022-08-04T18:40:26.448Z,1.80
2022-08-04T18:43:00.458Z,1.80
2022-08-04T18:45:34.110Z,1.90
2022-08-04T18:51:10.258Z,2.10
2022-08-04T18:53:38.625Z,2.30
2022-08-04T18:56:19.935Z,2.43
2022-08-04T18:59:00.012Z,1.80
2022-08-04T19:01:27.932Z,2.10
2022-08-04T19:03:58.384Z,2.10
2022-08-04T19:06:27.527Z,2.00
2022-08-04T19:08:55.433Z,2.13
2022-08-04T19:11:52.570Z,1.93
2022-08-04T19:14:13.691Z,2.40
2022-08-04T19:16:46.129Z,1.80
2022-08-04T19:19:15.482Z,2.03
2022-08-04T19:22:00.109Z,2.20
2022-08-04T19:24:34.052Z,2.40
2022-08-04T19:27:07.398Z,2.20
2022-08-04T19:29:43.141Z,2.20
2022-08-04T19:32:14.798Z,1.97
2022-08-04T19:34:45.995Z,2.73
2022-08-04T19:37:55.979Z,2.20
2022-08-04T19:40:04.764Z,2.30
2022-08-04T19:42:32.584Z,2.40
2022-08-04T19:45:02.227Z,2.00
2022-08-04T19:47:30.801Z,2.40
2022-08-04T19:50:17.791Z,2.70
2022-08-04T19:52:52.117Z,2.50
2022-08-04T19:55:22.132Z,2.77
2022-08-04T19:57:50.741Z,2.23
2022-08-04T20:00:33.346Z,2.23
2022-08-04T20:03:02.710Z,2.17
2022-08-04T20:05:54.386Z,2.43
2022-08-04T20:08:19.008Z,2.20
2022-08-04T20:10:51.994Z,2.17
2022-08-04T20:13:20.121Z,2.27
2022-08-04T20:15:57.466Z,2.53
2022-08-04T20:18:35.685Z,2.07
2022-08-04T20:21:18.783Z,2.27
2022-08-04T20:26:35.443Z,2.10
2022-08-04T20:29:03.341Z,2.33
2022-08-04T20:31:33.258Z,2.17
2022-08-04T20:34:10.987Z,2.47
2022-08-04T20:36:38.554Z,2.13
2022-08-04T20:39:17.505Z,2.20
2022-08-04T20:41:45.127Z,2.67
2022-08-04T20:44:12.876Z,2.20
2022-08-04T20:46:42.030Z,2.70
2022-08-04T20:49:09.963Z,2.27
2022-08-04T20:51:40.352Z,2.23
2022-08-04T20:54:16.605Z,2.63
2022-08-04T20:56:50.912Z,2.80
2022-08-04T20:59:19.238Z,2.00
2022-08-04T21:01:49.471Z,2.77
2022-08-04T21:04:32.463Z,2.83
2022-08-04T21:07:01.623Z,2.60
2022-08-04T21:09:38.005Z,2.33
2022-08-04T21:12:26.541Z,2.80
2022-08-04T21:14:57.794Z,2.40
2022-08-04T21:17:57.600Z,2.10
2022-08-04T21:20:27.314Z,2.37
2022-08-04T21:22:55.663Z,2.47
2022-08-04T21:25:27.766Z,2.60
2022-08-04T21:27:58.796Z,2.60
2022-08-04T21:30:27.389Z,2.30
2022-08-04T21:32:56.399Z,2.50
2022-08-04T21:35:38.205Z,2.70
2022-08-04T21:38:16.256Z,2.50
2022-08-04T21:40:53.299Z,2.30
2022-08-04T21:43:23.511Z,2.70
2022-08-04T21:45:55.893Z,2.33
2022-08-04T21:48:27.308Z,2.70
2022-08-04T21:50:56.420Z,2.53
2022-08-04T21:53:27.727Z,2.80
2022-08-04T22:01:51.058Z,2.53
2022-08-04T22:04:20.682Z,3.10
2022-08-04T22:06:51.926Z,3.23
2022-08-04T22:09:21.834Z,2.90
2022-08-04T22:11:51.729Z,2.83
2022-08-04T22:14:27.522Z,2.60
2022-08-04T22:16:57.700Z,3.03
2022-08-04T22:19:40.241Z,3.43
2022-08-04T22:22:24.475Z,2.70
2022-08-04T22:24:54.340Z,3.10
2022-08-04T22:27:35.850Z,2.70
2022-08-04T22:30:09.240Z,2.67
2022-08-04T22:32:44.372Z,2.63
2022-08-04T22:35:35.921Z,3.00
2022-08-04T22:38:07.842Z,2.67
2022-08-04T22:40:57.013Z,2.43
2022-08-04T22:43:33.610Z,2.60
2022-08-04T22:46:04.019Z,3.00
2022-08-04T22:48:33.126Z,2.93
2022-08-04T22:51:02.619Z,3.30
2022-08-04T22:53:30.740Z,3.10
2022-08-04T22:56:10.291Z,3.63
2022-08-04T22:58:45.190Z,2.73
2022-08-04T23:01:14.917Z,2.40
2022-08-04T23:03:50.859Z,2.83
2022-08-04T23:06:28.682Z,2.60
2022-08-04T23:08:56.617Z,2.77
2022-08-04T23:11:24.848Z,3.07
2022-08-04T23:14:02.784Z,2.27
2022-08-04T23:16:30.904Z,2.93
2022-08-04T23:19:00.167Z,2.80
2022-08-04T23:21:40.728Z,3.10
2022-08-04T23:24:09.434Z,2.80
2022-08-04T23:26:37.279Z,2.80
2022-08-04T23:29:05.209Z,3.23
2022-08-04T23:31:41.023Z,2.93
2022-08-04T23:34:12.239Z,2.70
2022-08-04T23:36:42.419Z,2.63
2022-08-04T23:39:10.492Z,2.40
2022-08-04T23:41:53.431Z,2.97
2022-08-04T23:44:26.653Z,2.60
2022-08-04T23:47:01.297Z,3.20
2022-08-04T23:49:43.847Z,3.07
2022-08-04T23:52:27.731Z,2.87
2022-08-04T23:54:58.370Z,2.70
2022-08-04T23:57:31.306Z,2.93
